Aérodrome :
LOGIN :

S'inscrire | Disclaimer

   EN    FR    IT 

 










Légende :    VFR   VFR Marginal   IFR   IFR Intensif   IFR Très Intensif
Visi : 
Plafond : 
>= 8 km
>= 3000ft
5 à 8 km
1000 à 3000 ft
1500m à 5 km
500 à 1000 ft
800 à 1500m
200 à 500 ft
< 800m
< 200 ft
Symboles :   Orages  Brouillard  Fortes neiges  Fortes précipitations  Vent > 20 kt
SIGMETs :   Divers  Orages  Givrage  Turbulence  Onde Orograph.  Cendres Volcan.






- Altitude de l'aérodrome : 13 ft
- Code IATA : OST


EBOS - Oostend bruges Int.

DERNIER METAR :
  • 211850Z 11009KT 6000 NSC 02/M00 Q1003 NOSIG

METARs EXPIRÉS :
  • 211820Z 11009KT 6000 NSC 02/00 Q1003 NOSIG
  • 211750Z 11008KT 5000 BR NSC 02/M00 Q1004 BECMG 7000 NSW
  • 211720Z 10007KT 4600 BR NSC 01/00 Q1004 TEMPO 5000
  • 211650Z 10007KT 4400 BR NSC 01/00 Q1004 TEMPO 5000
  • 211620Z 11008KT 4000 BR NSC 02/01 Q1004 TEMPO 5000

TAF TAF EBOS
Valide du 21 à 18h jusqu'au 23 à 00h UTC


211710Z 2118/2224 13009KT 8000 NSC
BECMG 2123/2201 SCT008 BKN011
TEMPO 2200/2204 4000 RA SHRA BKN008
BECMG 2206/2208 BKN018



MET'MAP, la Météo Aéronautique d'un coup d'oeil ! - Copyright ORBIFLY Décembre 2007 - Disclaimer

ORBIFLY MET'MAP TEAM :

Programmation & Développement : Alexandra Zaïnal
Conception & Développement : Baudouin d'Aumeries
Co-Programmation & Développement : Marc-Olivier Méhu
Soutien technique & logistique : Manuel Goepfert

Contact : metmap@orbifly.com




SOURCES & CREDITS :

   NOAA